LFOP/URO METAR and TAF weather

Enter ICAO airport designator
Station Type Date Time Source
LFOP METAR 2021/03/03 03:00 UTC NOAA

LFOP 030300Z AUTO 15003KT CAVOK 06/02 Q1028


Station Type Date Time Source
LFOP Decoded METAR 2021/03/03 03:00 UTC NOAA

Rouen, France (LFOP) 49-23N 001-11E 157M
Mar 02, 2021 - 10:00 PM EST / 2021.03.03 0300 UTC
Wind: from the SSE (150 degrees) at 3 MPH (3 KT):0
Visibility: greater than 7 mile(s):0
Temperature: 42 F (6 C)
Dew Point: 35 F (2 C)
Relative Humidity: 75%
Pressure (altimeter): 30.36 in. Hg (1028 hPa)
ob: LFOP 030300Z AUTO 15003KT CAVOK 06/02 Q1028
cycle: 3

Station Type Date Time Source
LFOP TAF 2021/03/02 21:07 UTC NOAA

TAF LFOP 022101Z 0221/0318 CNL

Example: see airport list